GLO1336 SBSP-SBDN
Flight info
| Callsign | GLO1336 |
|---|---|
| Flight time | 0h 53m |
| Altitude | 34000 |
| Route | EGEVA UM415 PRR DCT |
| Aircraft | B737/M-SDFGIKLORWXY/LB1 |
Departure
| Time | 2026-04-25 12:12 |
|---|---|
| Airport | Congonhas–Deputado Freitas Nobre Airport (SBSP) |
Arrival
| Time | 2026-04-25 13:05 |
|---|---|
| Airport | Presidente Prudente Airport (SBDN) |
| Time | Latitude | Longitude | Altitude | Speed | Heading |
|---|---|---|---|---|---|
| 2026-04-25 11:56 | -23.62570 | -46.65926 | 2599 ft | 0 kts | 237° |
| 2026-04-25 12:02 | -23.62569 | -46.65924 | 2599 ft | 2 kts | 237° |
| 2026-04-25 12:02 | -23.62556 | -46.65900 | 2600 ft | 4 kts | 248° |
| 2026-04-25 12:02 | -23.62556 | -46.65879 | 2600 ft | 3 kts | 327° |
| 2026-04-25 12:03 | -23.62571 | -46.65868 | 2600 ft | 0 kts | 327° |
| 2026-04-25 12:05 | -23.62571 | -46.65869 | 2600 ft | 0 kts | 327° |
| 2026-04-25 12:05 | -23.62560 | -46.65874 | 2600 ft | 3 kts | 337° |
| 2026-04-25 12:05 | -23.62525 | -46.65882 | 2600 ft | 7 kts | 350° |
| 2026-04-25 12:05 | -23.62470 | -46.65893 | 2600 ft | 9 kts | 348° |
| 2026-04-25 12:06 | -23.62417 | -46.65920 | 2600 ft | 8 kts | 319° |
| 2026-04-25 12:06 | -23.62372 | -46.65958 | 2599 ft | 8 kts | 327° |
| 2026-04-25 12:06 | -23.62325 | -46.65991 | 2599 ft | 8 kts | 327° |
| 2026-04-25 12:06 | -23.62278 | -46.66019 | 2599 ft | 8 kts | 334° |
| 2026-04-25 12:07 | -23.62277 | -46.66053 | 2599 ft | 7 kts | 177° |
| 2026-04-25 12:07 | -23.62312 | -46.66012 | 2599 ft | 7 kts | 132° |
| 2026-04-25 12:07 | -23.62350 | -46.65975 | 2599 ft | 8 kts | 143° |
| 2026-04-25 12:07 | -23.62397 | -46.65941 | 2600 ft | 9 kts | 150° |
| 2026-04-25 12:08 | -23.62457 | -46.65903 | 2600 ft | 11 kts | 149° |
| 2026-04-25 12:08 | -23.62518 | -46.65862 | 2600 ft | 10 kts | 147° |
| 2026-04-25 12:08 | -23.62576 | -46.65819 | 2601 ft | 10 kts | 144° |
| 2026-04-25 12:08 | -23.62640 | -46.65773 | 2601 ft | 12 kts | 147° |
| 2026-04-25 12:09 | -23.62718 | -46.65717 | 2601 ft | 14 kts | 146° |
| 2026-04-25 12:09 | -23.62810 | -46.65656 | 2602 ft | 17 kts | 148° |
| 2026-04-25 12:09 | -23.62909 | -46.65586 | 2602 ft | 17 kts | 147° |
| 2026-04-25 12:09 | -23.63009 | -46.65525 | 2602 ft | 16 kts | 165° |
| 2026-04-25 12:10 | -23.63111 | -46.65483 | 2601 ft | 16 kts | 147° |
| 2026-04-25 12:10 | -23.63201 | -46.65420 | 2601 ft | 15 kts | 147° |
| 2026-04-25 12:10 | -23.63288 | -46.65362 | 2601 ft | 14 kts | 148° |
| 2026-04-25 12:10 | -23.63371 | -46.65305 | 2601 ft | 14 kts | 147° |
| 2026-04-25 12:11 | -23.63449 | -46.65249 | 2600 ft | 13 kts | 146° |
| 2026-04-25 12:11 | -23.63502 | -46.65178 | 2599 ft | 13 kts | 82° |
| 2026-04-25 12:11 | -23.63436 | -46.65123 | 2600 ft | 12 kts | 1° |
| 2026-04-25 12:11 | -23.63300 | -46.65207 | 2608 ft | 53 kts | 328° |
| 2026-04-25 12:12 | -23.62754 | -46.65586 | 2606 ft | 131 kts | 328° |
| 2026-04-25 12:12 | -23.62139 | -46.65995 | 2625 ft | 173 kts | 329° |
| 2026-04-25 12:12 | -23.60664 | -46.66942 | 3622 ft | 192 kts | 331° |
| 2026-04-25 12:12 | -23.59550 | -46.67828 | 4347 ft | 215 kts | 306° |
| 2026-04-25 12:13 | -23.59108 | -46.69457 | 4789 ft | 236 kts | 262° |
| 2026-04-25 12:13 | -23.59398 | -46.71214 | 5831 ft | 236 kts | 262° |
| 2026-04-25 12:13 | -23.59588 | -46.72983 | 6953 ft | 234 kts | 266° |
| 2026-04-25 12:13 | -23.59694 | -46.74775 | 7742 ft | 238 kts | 264° |
| 2026-04-25 12:14 | -23.59950 | -46.76614 | 8150 ft | 261 kts | 260° |
| 2026-04-25 12:14 | -23.60264 | -46.78631 | 8848 ft | 275 kts | 261° |
| 2026-04-25 12:14 | -23.60568 | -46.80718 | 9806 ft | 280 kts | 261° |
| 2026-04-25 12:14 | -23.60859 | -46.82832 | 10539 ft | 287 kts | 261° |
| 2026-04-25 12:15 | -23.60958 | -46.83570 | 10691 ft | 295 kts | 261° |
| 2026-04-25 12:15 | -23.61267 | -46.85871 | 11003 ft | 320 kts | 261° |
| 2026-04-25 12:15 | -23.61493 | -46.88317 | 11724 ft | 329 kts | 266° |
| 2026-04-25 12:16 | -23.61581 | -46.90825 | 12616 ft | 332 kts | 268° |
| 2026-04-25 12:16 | -23.61632 | -46.93356 | 13506 ft | 336 kts | 268° |
| 2026-04-25 12:16 | -23.61683 | -46.95910 | 14757 ft | 336 kts | 268° |
| 2026-04-25 12:16 | -23.61742 | -46.98480 | 15541 ft | 342 kts | 268° |
| 2026-04-25 12:17 | -23.61810 | -47.01093 | 16299 ft | 347 kts | 268° |
| 2026-04-25 12:17 | -23.61884 | -47.03731 | 17102 ft | 349 kts | 268° |
| 2026-04-25 12:17 | -23.61962 | -47.06384 | 17855 ft | 352 kts | 268° |
| 2026-04-25 12:17 | -23.62043 | -47.09074 | 18569 ft | 356 kts | 268° |
| 2026-04-25 12:18 | -23.62124 | -47.11778 | 19282 ft | 359 kts | 268° |
| 2026-04-25 12:18 | -23.62206 | -47.14508 | 19979 ft | 361 kts | 268° |
| 2026-04-25 12:18 | -23.62288 | -47.17257 | 20641 ft | 364 kts | 268° |
| 2026-04-25 12:18 | -23.62370 | -47.20025 | 21285 ft | 367 kts | 268° |
| 2026-04-25 12:19 | -23.61903 | -47.24641 | 22223 ft | 376 kts | 288° |
| 2026-04-25 12:19 | -23.60574 | -47.28184 | 23018 ft | 380 kts | 291° |
| 2026-04-25 12:19 | -23.59502 | -47.30832 | 23524 ft | 383 kts | 291° |
| 2026-04-25 12:20 | -23.58421 | -47.33502 | 24037 ft | 386 kts | 291° |
| 2026-04-25 12:20 | -23.57360 | -47.36161 | 24531 ft | 388 kts | 290° |
| 2026-04-25 12:20 | -23.56291 | -47.38874 | 25019 ft | 391 kts | 290° |
| 2026-04-25 12:20 | -23.55226 | -47.41602 | 25515 ft | 392 kts | 290° |
| 2026-04-25 12:21 | -23.54155 | -47.44350 | 25999 ft | 394 kts | 290° |
| 2026-04-25 12:21 | -23.53080 | -47.47108 | 26466 ft | 396 kts | 290° |
| 2026-04-25 12:21 | -23.52076 | -47.49912 | 26939 ft | 396 kts | 286° |
| 2026-04-25 12:21 | -23.51249 | -47.52777 | 27402 ft | 397 kts | 284° |
| 2026-04-25 12:22 | -23.50476 | -47.55680 | 27865 ft | 399 kts | 284° |
| 2026-04-25 12:22 | -23.49704 | -47.58587 | 28302 ft | 401 kts | 284° |
| 2026-04-25 12:22 | -23.48909 | -47.61513 | 28714 ft | 403 kts | 284° |
| 2026-04-25 12:22 | -23.48094 | -47.64440 | 29127 ft | 405 kts | 285° |
| 2026-04-25 12:23 | -23.47266 | -47.67378 | 29558 ft | 407 kts | 285° |
| 2026-04-25 12:23 | -23.46432 | -47.70329 | 29988 ft | 408 kts | 285° |
| 2026-04-25 12:23 | -23.45596 | -47.73290 | 30383 ft | 410 kts | 285° |
| 2026-04-25 12:23 | -23.44765 | -47.76223 | 30745 ft | 412 kts | 285° |
| 2026-04-25 12:24 | -23.43648 | -47.79158 | 31057 ft | 418 kts | 294° |
| 2026-04-25 12:24 | -23.42301 | -47.81931 | 31392 ft | 421 kts | 295° |
| 2026-04-25 12:24 | -23.40876 | -47.84727 | 31709 ft | 424 kts | 296° |
| 2026-04-25 12:24 | -23.39440 | -47.87537 | 32017 ft | 426 kts | 296° |
| 2026-04-25 12:25 | -23.38012 | -47.90371 | 32307 ft | 428 kts | 295° |
| 2026-04-25 12:25 | -23.36590 | -47.93230 | 32583 ft | 431 kts | 295° |
| 2026-04-25 12:25 | -23.35172 | -47.96110 | 32916 ft | 431 kts | 295° |
| 2026-04-25 12:25 | -23.33762 | -47.98984 | 33360 ft | 429 kts | 295° |
| 2026-04-25 12:26 | -23.32360 | -48.01842 | 33821 ft | 427 kts | 295° |
| 2026-04-25 12:26 | -23.30961 | -48.04693 | 34124 ft | 428 kts | 295° |
| 2026-04-25 12:26 | -23.29561 | -48.07541 | 34090 ft | 421 kts | 295° |
| 2026-04-25 12:26 | -23.28255 | -48.10322 | 34101 ft | 406 kts | 290° |
| 2026-04-25 12:27 | -23.27279 | -48.13170 | 34129 ft | 399 kts | 286° |
| 2026-04-25 12:27 | -23.25563 | -48.18904 | 34130 ft | 400 kts | 285° |
| 2026-04-25 12:28 | -23.24134 | -48.23686 | 34126 ft | 401 kts | 286° |
| 2026-04-25 12:28 | -23.22356 | -48.29462 | 34131 ft | 403 kts | 286° |
| 2026-04-25 12:29 | -23.20552 | -48.35234 | 34120 ft | 404 kts | 287° |
| 2026-04-25 12:29 | -23.18742 | -48.41003 | 34116 ft | 402 kts | 287° |
| 2026-04-25 12:30 | -23.16935 | -48.46758 | 34118 ft | 401 kts | 287° |
| 2026-04-25 12:30 | -23.15136 | -48.52488 | 34121 ft | 400 kts | 287° |
| 2026-04-25 12:31 | -23.13332 | -48.58211 | 34116 ft | 400 kts | 287° |
| 2026-04-25 12:31 | -23.11518 | -48.63918 | 34122 ft | 400 kts | 287° |
| 2026-04-25 12:32 | -23.09709 | -48.69600 | 34113 ft | 401 kts | 287° |
| 2026-04-25 12:32 | -23.07883 | -48.75332 | 34112 ft | 401 kts | 287° |
| 2026-04-25 12:33 | -23.06054 | -48.81067 | 34109 ft | 402 kts | 287° |
| 2026-04-25 12:33 | -23.04223 | -48.86803 | 34109 ft | 402 kts | 287° |
| 2026-04-25 12:34 | -23.02391 | -48.92535 | 34114 ft | 402 kts | 287° |
| 2026-04-25 12:34 | -23.00553 | -48.98273 | 34108 ft | 402 kts | 287° |
| 2026-04-25 12:35 | -22.98714 | -49.04010 | 34112 ft | 402 kts | 287° |
| 2026-04-25 12:35 | -22.96882 | -49.09719 | 34110 ft | 402 kts | 287° |
| 2026-04-25 12:36 | -22.95040 | -49.15451 | 34101 ft | 402 kts | 287° |
| 2026-04-25 12:36 | -22.93041 | -49.21123 | 34101 ft | 403 kts | 290° |
| 2026-04-25 12:37 | -22.90927 | -49.26758 | 34102 ft | 403 kts | 290° |
| 2026-04-25 12:37 | -22.88938 | -49.32439 | 34098 ft | 402 kts | 287° |
| 2026-04-25 12:38 | -22.87216 | -49.38213 | 34103 ft | 402 kts | 286° |
| 2026-04-25 12:38 | -22.85488 | -49.43984 | 34104 ft | 403 kts | 287° |
| 2026-04-25 12:39 | -22.83692 | -49.49738 | 34103 ft | 403 kts | 288° |
| 2026-04-25 12:39 | -22.81761 | -49.55452 | 34100 ft | 403 kts | 289° |
| 2026-04-25 12:40 | -22.79821 | -49.61163 | 34101 ft | 404 kts | 289° |
| 2026-04-25 12:40 | -22.77894 | -49.66882 | 34100 ft | 404 kts | 289° |
| 2026-04-25 12:41 | -22.75970 | -49.72601 | 34098 ft | 404 kts | 289° |
| 2026-04-25 12:41 | -22.74057 | -49.78283 | 34087 ft | 404 kts | 289° |
| 2026-04-25 12:42 | -22.72127 | -49.84004 | 34093 ft | 404 kts | 289° |
| 2026-04-25 12:42 | -22.70188 | -49.89722 | 34092 ft | 404 kts | 289° |
| 2026-04-25 12:43 | -22.68244 | -49.95444 | 34096 ft | 405 kts | 289° |
| 2026-04-25 12:43 | -22.65324 | -50.04033 | 34094 ft | 405 kts | 289° |
| 2026-04-25 12:44 | -22.63364 | -50.09792 | 34107 ft | 414 kts | 289° |
| 2026-04-25 12:44 | -22.61364 | -50.15757 | 34105 ft | 429 kts | 289° |
| 2026-04-25 12:45 | -22.60341 | -50.18817 | 33818 ft | 439 kts | 289° |
| 2026-04-25 12:45 | -22.59283 | -50.21977 | 33103 ft | 448 kts | 289° |
| 2026-04-25 12:45 | -22.57358 | -50.28354 | 31663 ft | 440 kts | 284° |
| 2026-04-25 12:46 | -22.56555 | -50.31526 | 31068 ft | 435 kts | 284° |
| 2026-04-25 12:46 | -22.55778 | -50.34674 | 30441 ft | 430 kts | 284° |
| 2026-04-25 12:46 | -22.55011 | -50.37790 | 29831 ft | 425 kts | 284° |
| 2026-04-25 12:46 | -22.54251 | -50.40857 | 29227 ft | 420 kts | 284° |
| 2026-04-25 12:47 | -22.53503 | -50.43852 | 28618 ft | 416 kts | 284° |
| 2026-04-25 12:47 | -22.52740 | -50.46890 | 27999 ft | 411 kts | 284° |
| 2026-04-25 12:47 | -22.51999 | -50.49825 | 27401 ft | 407 kts | 284° |
| 2026-04-25 12:47 | -22.51254 | -50.52769 | 26803 ft | 404 kts | 284° |
| 2026-04-25 12:48 | -22.50514 | -50.55684 | 26203 ft | 400 kts | 284° |
| 2026-04-25 12:48 | -22.49780 | -50.58575 | 25606 ft | 397 kts | 284° |
| 2026-04-25 12:48 | -22.49049 | -50.61450 | 25009 ft | 394 kts | 284° |
| 2026-04-25 12:48 | -22.48324 | -50.64299 | 24418 ft | 392 kts | 284° |
| 2026-04-25 12:49 | -22.47603 | -50.67131 | 23829 ft | 389 kts | 284° |
| 2026-04-25 12:49 | -22.46885 | -50.69948 | 23239 ft | 387 kts | 284° |
| 2026-04-25 12:49 | -22.46173 | -50.72740 | 22654 ft | 384 kts | 284° |
| 2026-04-25 12:49 | -22.45464 | -50.75519 | 22073 ft | 381 kts | 284° |
| 2026-04-25 12:50 | -22.44761 | -50.78272 | 21485 ft | 379 kts | 284° |
| 2026-04-25 12:50 | -22.44062 | -50.81009 | 20910 ft | 376 kts | 284° |
| 2026-04-25 12:50 | -22.43376 | -50.83690 | 20335 ft | 374 kts | 284° |
| 2026-04-25 12:50 | -22.42676 | -50.86425 | 19759 ft | 371 kts | 284° |
| 2026-04-25 12:51 | -22.42000 | -50.89065 | 19190 ft | 368 kts | 284° |
| 2026-04-25 12:51 | -22.41319 | -50.91721 | 18624 ft | 365 kts | 284° |
| 2026-04-25 12:51 | -22.40643 | -50.94357 | 18064 ft | 362 kts | 285° |
| 2026-04-25 12:51 | -22.39972 | -50.96972 | 17496 ft | 360 kts | 285° |
| 2026-04-25 12:52 | -22.39306 | -50.99566 | 16933 ft | 357 kts | 285° |
| 2026-04-25 12:52 | -22.38643 | -51.02142 | 16371 ft | 355 kts | 285° |
| 2026-04-25 12:52 | -22.37985 | -51.04702 | 15804 ft | 353 kts | 284° |
| 2026-04-25 12:52 | -22.37331 | -51.07242 | 15255 ft | 350 kts | 284° |
| 2026-04-25 12:53 | -22.36680 | -51.09767 | 14692 ft | 348 kts | 284° |
| 2026-04-25 12:53 | -22.36032 | -51.12282 | 14139 ft | 346 kts | 284° |
| 2026-04-25 12:53 | -22.35388 | -51.14777 | 13592 ft | 344 kts | 284° |
| 2026-04-25 12:53 | -22.34746 | -51.17267 | 13016 ft | 343 kts | 284° |
| 2026-04-25 12:54 | -22.34106 | -51.19744 | 12452 ft | 341 kts | 284° |
| 2026-04-25 12:54 | -22.33469 | -51.22208 | 11904 ft | 340 kts | 284° |
| 2026-04-25 12:54 | -22.32833 | -51.24667 | 11313 ft | 338 kts | 284° |
| 2026-04-25 12:54 | -22.32203 | -51.27103 | 10754 ft | 336 kts | 285° |
| 2026-04-25 12:55 | -22.31587 | -51.29480 | 10494 ft | 326 kts | 285° |
| 2026-04-25 12:55 | -22.31181 | -51.31047 | 10371 ft | 317 kts | 285° |
| 2026-04-25 12:55 | -22.30411 | -51.34012 | 10170 ft | 301 kts | 285° |
| 2026-04-25 12:55 | -22.29856 | -51.36155 | 10028 ft | 290 kts | 285° |
| 2026-04-25 12:56 | -22.29326 | -51.38198 | 9783 ft | 279 kts | 286° |
| 2026-04-25 12:56 | -22.28802 | -51.40216 | 9314 ft | 276 kts | 286° |
| 2026-04-25 12:56 | -22.28287 | -51.42196 | 8874 ft | 270 kts | 287° |
| 2026-04-25 12:56 | -22.27785 | -51.44125 | 8465 ft | 264 kts | 287° |
| 2026-04-25 12:57 | -22.27291 | -51.46023 | 8072 ft | 260 kts | 287° |
| 2026-04-25 12:57 | -22.26812 | -51.47862 | 7845 ft | 245 kts | 287° |
| 2026-04-25 12:57 | -22.26358 | -51.49608 | 7438 ft | 237 kts | 287° |
| 2026-04-25 12:57 | -22.25932 | -51.51257 | 7133 ft | 226 kts | 288° |
| 2026-04-25 12:58 | -22.25517 | -51.52851 | 6914 ft | 218 kts | 287° |
| 2026-04-25 12:58 | -22.25107 | -51.54425 | 6614 ft | 217 kts | 288° |
| 2026-04-25 12:58 | -22.24700 | -51.55979 | 6371 ft | 215 kts | 288° |
| 2026-04-25 12:58 | -22.24292 | -51.57538 | 6054 ft | 215 kts | 288° |
| 2026-04-25 12:59 | -22.23889 | -51.59083 | 5782 ft | 212 kts | 288° |
| 2026-04-25 12:59 | -22.23491 | -51.60609 | 5513 ft | 210 kts | 288° |
| 2026-04-25 12:59 | -22.23098 | -51.62107 | 5336 ft | 204 kts | 289° |
| 2026-04-25 12:59 | -22.22442 | -51.63442 | 5187 ft | 204 kts | 319° |
| 2026-04-25 13:00 | -22.21195 | -51.64145 | 5113 ft | 208 kts | 350° |
| 2026-04-25 13:00 | -22.20726 | -51.64191 | 5096 ft | 209 kts | 0° |
| 2026-04-25 13:00 | -22.18551 | -51.63310 | 4956 ft | 193 kts | 26° |
| 2026-04-25 13:00 | -22.17410 | -51.62640 | 4818 ft | 183 kts | 26° |
| 2026-04-25 13:01 | -22.16320 | -51.61999 | 4724 ft | 174 kts | 27° |
| 2026-04-25 13:01 | -22.15507 | -51.61070 | 4573 ft | 176 kts | 71° |
| 2026-04-25 13:01 | -22.15400 | -51.59752 | 4436 ft | 179 kts | 86° |
| 2026-04-25 13:01 | -22.15424 | -51.58380 | 4169 ft | 184 kts | 89° |
| 2026-04-25 13:02 | -22.15525 | -51.56997 | 3926 ft | 185 kts | 94° |
| 2026-04-25 13:02 | -22.15680 | -51.55629 | 3665 ft | 181 kts | 95° |
| 2026-04-25 13:02 | -22.15853 | -51.54329 | 3432 ft | 171 kts | 96° |
| 2026-04-25 13:02 | -22.16021 | -51.53109 | 3260 ft | 159 kts | 96° |
| 2026-04-25 13:03 | -22.16181 | -51.51975 | 3023 ft | 150 kts | 96° |
| 2026-04-25 13:03 | -22.16329 | -51.50883 | 2844 ft | 148 kts | 96° |
| 2026-04-25 13:03 | -22.16481 | -51.49799 | 2641 ft | 143 kts | 97° |
| 2026-04-25 13:03 | -22.16633 | -51.48722 | 2462 ft | 147 kts | 97° |
| 2026-04-25 13:04 | -22.16784 | -51.47637 | 2252 ft | 145 kts | 98° |
| 2026-04-25 13:04 | -22.16933 | -51.46566 | 2058 ft | 145 kts | 98° |
| 2026-04-25 13:04 | -22.17082 | -51.45498 | 1887 ft | 144 kts | 98° |
| 2026-04-25 13:04 | -22.17233 | -51.44420 | 1660 ft | 146 kts | 98° |
| 2026-04-25 13:05 | -22.17381 | -51.43347 | 1451 ft | 143 kts | 98° |
| 2026-04-25 13:05 | -22.17512 | -51.42422 | 1467 ft | 96 kts | 98° |
| 2026-04-25 13:05 | -22.17579 | -51.41935 | 1480 ft | 33 kts | 99° |
| 2026-04-25 13:05 | -22.17610 | -51.41712 | 1478 ft | 29 kts | 98° |
| 2026-04-25 13:06 | -22.17634 | -51.41538 | 1480 ft | 15 kts | 99° |
| 2026-04-25 13:06 | -22.17681 | -51.41478 | 1477 ft | 11 kts | 170° |
| 2026-04-25 13:06 | -22.17746 | -51.41500 | 1486 ft | 9 kts | 229° |
| 2026-04-25 13:06 | -22.17770 | -51.41559 | 1479 ft | 9 kts | 264° |
| 2026-04-25 13:07 | -22.17763 | -51.41622 | 1485 ft | 8 kts | 277° |
| 2026-04-25 13:07 | -22.17754 | -51.41683 | 1484 ft | 8 kts | 279° |
| 2026-04-25 13:07 | -22.17749 | -51.41723 | 1483 ft | 2 kts | 277° |
| 2026-04-25 13:07 | -22.17748 | -51.41739 | 1483 ft | 2 kts | 263° |
| 2026-04-25 13:08 | -22.17757 | -51.41750 | 1484 ft | 2 kts | 212° |
| 2026-04-25 13:08 | -22.17771 | -51.41750 | 1486 ft | 2 kts | 184° |
| 2026-04-25 13:08 | -22.17783 | -51.41752 | 1476 ft | 2 kts | 188° |
| 2026-04-25 13:08 | -22.17793 | -51.41753 | 1487 ft | 0 kts | 188° |